createdAt,value
2022-08-08T00:00:55.847Z,17.39
2022-08-08T00:02:50.066Z,17.32
2022-08-08T00:05:43.506Z,17.25
2022-08-08T00:08:34.144Z,17.19
2022-08-08T00:11:14.805Z,17.17
2022-08-08T00:14:17.272Z,17.10
2022-08-08T00:16:57.011Z,16.98
2022-08-08T00:19:30.795Z,16.98
2022-08-08T00:22:04.184Z,16.95
2022-08-08T00:24:37.325Z,16.90
2022-08-08T00:27:10.700Z,16.81
2022-08-08T00:29:52.215Z,16.85
2022-08-08T00:32:35.276Z,16.83
2022-08-08T00:35:21.688Z,16.78
2022-08-08T00:38:07.360Z,16.70
2022-08-08T00:41:54.762Z,16.69
2022-08-08T00:44:47.373Z,16.70
2022-08-08T00:48:01.966Z,16.67
2022-08-08T00:51:15.265Z,16.64
2022-08-08T00:54:13.617Z,16.52
2022-08-08T00:57:19.630Z,16.39
2022-08-08T01:00:07.847Z,16.30
2022-08-08T01:03:58.165Z,16.21
2022-08-08T01:06:08.080Z,16.17
2022-08-08T01:09:36.818Z,16.18
2022-08-08T01:12:29.871Z,16.17
2022-08-08T01:15:43.923Z,16.18
2022-08-08T01:18:16.174Z,16.16
2022-08-08T01:22:01.685Z,16.11
2022-08-08T01:24:34.065Z,16.00
2022-08-08T01:27:44.496Z,15.93
2022-08-08T01:30:45.982Z,15.85
2022-08-08T01:33:43.286Z,15.79
2022-08-08T01:36:38.938Z,15.78
2022-08-08T01:39:23.174Z,15.81
2022-08-08T01:42:08.366Z,15.80
2022-08-08T01:44:53.470Z,15.82
2022-08-08T01:48:13.827Z,15.74
2022-08-08T01:50:53.995Z,15.65
2022-08-08T01:55:16.630Z,15.57
2022-08-08T01:56:34.154Z,15.52
2022-08-08T01:59:11.711Z,15.52
2022-08-08T02:02:09.275Z,15.55
2022-08-08T02:05:06.208Z,15.53
2022-08-08T02:08:10.663Z,15.44
2022-08-08T02:10:53.576Z,15.36
2022-08-08T02:13:52.659Z,15.34
2022-08-08T02:16:57.666Z,15.31
2022-08-08T02:20:07.118Z,15.23
2022-08-08T02:23:03.718Z,15.19
2022-08-08T02:25:46.984Z,15.16
2022-08-08T02:28:37.962Z,15.12
2022-08-08T02:31:59.654Z,15.16
2022-08-08T02:34:09.858Z,15.17
2022-08-08T02:37:51.965Z,15.18
2022-08-08T02:40:25.963Z,15.18
2022-08-08T02:44:37.907Z,15.16
2022-08-08T02:46:44.931Z,15.16
2022-08-08T02:49:59.844Z,15.15
2022-08-08T02:52:51.728Z,15.11
2022-08-08T02:55:21.926Z,15.07
2022-08-08T02:58:15.111Z,15.03
2022-08-08T03:00:50.689Z,14.94
2022-08-08T03:05:05.355Z,14.85
2022-08-08T03:06:51.597Z,14.80
2022-08-08T03:09:54.016Z,14.77
2022-08-08T03:13:02.273Z,14.79
2022-08-08T03:16:04.036Z,14.82
2022-08-08T03:19:24.532Z,14.96
2022-08-08T03:21:54.723Z,15.01
2022-08-08T03:24:28.861Z,15.07
2022-08-08T03:27:09.347Z,15.14
2022-08-08T03:29:54.763Z,15.11
2022-08-08T03:32:53.257Z,15.13
2022-08-08T03:35:30.147Z,15.08
2022-08-08T03:38:56.323Z,15.04
2022-08-08T03:40:54.744Z,15.08
2022-08-08T03:43:25.207Z,15.09
2022-08-08T03:46:09.042Z,15.09
2022-08-08T03:49:30.873Z,15.08
2022-08-08T03:51:50.768Z,15.08
2022-08-08T03:54:41.207Z,15.06
2022-08-08T03:58:09.585Z,15.05
2022-08-08T04:00:02.521Z,15.05
2022-08-08T04:02:47.524Z,14.97
2022-08-08T04:05:22.771Z,14.91
2022-08-08T04:07:57.813Z,14.90
2022-08-08T04:10:31.987Z,14.89
2022-08-08T04:13:08.295Z,14.87
2022-08-08T04:15:55.000Z,14.92
2022-08-08T04:18:35.944Z,14.97
2022-08-08T04:21:10.090Z,15.02
2022-08-08T04:24:05.184Z,15.08
2022-08-08T04:26:26.568Z,15.13
2022-08-08T04:29:02.576Z,15.22
2022-08-08T04:31:59.473Z,15.27
2022-08-08T04:34:17.566Z,15.33
2022-08-08T04:36:45.330Z,15.38
2022-08-08T04:39:47.755Z,15.46
2022-08-08T04:42:00.121Z,15.62
2022-08-08T04:44:28.460Z,15.72
2022-08-08T04:47:00.880Z,15.82
2022-08-08T04:49:28.831Z,16.00
2022-08-08T04:52:14.459Z,16.14
2022-08-08T04:54:42.250Z,16.21
2022-08-08T04:57:11.159Z,16.21
2022-08-08T04:59:41.990Z,16.26
2022-08-08T05:02:13.792Z,16.29
2022-08-08T05:04:44.598Z,16.32
2022-08-08T05:07:12.003Z,16.29
2022-08-08T05:09:42.405Z,16.29
2022-08-08T05:12:09.473Z,16.31
2022-08-08T05:14:47.008Z,16.37
2022-08-08T05:17:15.767Z,16.44
2022-08-08T05:20:10.985Z,16.51
2022-08-08T05:22:38.322Z,16.57
2022-08-08T05:25:06.297Z,16.61
2022-08-08T05:27:41.064Z,16.62
2022-08-08T05:30:10.979Z,16.64
2022-08-08T05:32:44.261Z,16.68
2022-08-08T05:35:14.726Z,16.70
2022-08-08T05:37:53.224Z,16.80
2022-08-08T05:40:28.547Z,16.89
2022-08-08T05:43:38.642Z,16.96
2022-08-08T05:46:03.406Z,17.08
2022-08-08T05:48:34.715Z,17.22
2022-08-08T05:51:15.226Z,17.34
2022-08-08T05:54:25.285Z,17.46
2022-08-08T05:56:42.300Z,17.60
2022-08-08T05:59:59.590Z,17.66
2022-08-08T06:02:40.914Z,17.92
2022-08-08T06:05:34.287Z,18.04
2022-08-08T06:08:02.950Z,18.19
2022-08-08T06:10:39.446Z,18.35
2022-08-08T06:13:09.334Z,18.51
2022-08-08T06:15:50.621Z,18.63
2022-08-08T06:18:30.263Z,18.84
2022-08-08T06:21:03.798Z,19.03
2022-08-08T06:23:53.421Z,19.14
2022-08-08T06:26:43.044Z,19.27
2022-08-08T06:29:26.657Z,19.42
2022-08-08T06:32:10.056Z,19.55
2022-08-08T06:34:39.807Z,19.63
2022-08-08T06:37:25.160Z,19.69
2022-08-08T06:39:57.590Z,19.75
2022-08-08T06:42:33.730Z,19.77
2022-08-08T06:45:07.839Z,19.82
2022-08-08T06:47:52.668Z,19.85
2022-08-08T06:50:34.029Z,19.93
2022-08-08T06:53:20.256Z,20.00
2022-08-08T06:56:02.055Z,20.09
2022-08-08T06:58:33.254Z,20.15
2022-08-08T07:01:11.733Z,20.18
2022-08-08T07:04:37.412Z,20.28
2022-08-08T07:06:43.391Z,20.32
2022-08-08T07:09:18.010Z,20.36
2022-08-08T07:11:51.712Z,20.45
2022-08-08T07:14:29.758Z,20.51
2022-08-08T07:17:09.227Z,20.61
2022-08-08T07:20:02.960Z,20.72
2022-08-08T07:22:40.891Z,20.81
2022-08-08T07:25:10.292Z,20.90
2022-08-08T07:28:00.847Z,20.91
2022-08-08T07:30:31.623Z,20.99
2022-08-08T07:33:01.114Z,21.03
2022-08-08T07:35:31.094Z,21.10
2022-08-08T07:38:10.615Z,21.21
2022-08-08T07:40:55.635Z,21.27
2022-08-08T07:43:37.162Z,21.34
2022-08-08T07:46:23.716Z,21.35
2022-08-08T07:48:57.233Z,21.35
2022-08-08T07:51:44.797Z,21.44
2022-08-08T07:54:26.665Z,21.49
2022-08-08T07:57:19.919Z,21.63
2022-08-08T08:00:02.367Z,21.77
2022-08-08T08:02:38.706Z,21.83
2022-08-08T08:05:33.489Z,21.86
2022-08-08T08:08:10.278Z,21.90
2022-08-08T08:10:38.513Z,21.93
2022-08-08T08:13:25.768Z,21.99
2022-08-08T08:16:17.127Z,22.16
2022-08-08T08:18:56.059Z,22.24
2022-08-08T08:21:44.140Z,22.31
2022-08-08T08:24:30.714Z,22.38
2022-08-08T08:27:02.679Z,22.42
2022-08-08T08:29:30.777Z,22.39
2022-08-08T08:31:59.211Z,22.45
2022-08-08T08:34:32.601Z,22.54
2022-08-08T08:37:03.389Z,22.67
2022-08-08T08:39:59.994Z,22.77
2022-08-08T08:42:31.812Z,22.96
2022-08-08T08:45:21.736Z,23.08
2022-08-08T08:47:58.624Z,23.12
2022-08-08T08:50:34.689Z,23.14
2022-08-08T08:53:54.227Z,23.29
2022-08-08T08:56:04.267Z,23.38
2022-08-08T08:58:41.391Z,23.37
2022-08-08T09:01:13.589Z,23.45
2022-08-08T09:03:46.581Z,23.44
2022-08-08T09:06:28.619Z,23.56
2022-08-08T09:09:25.946Z,23.71
2022-08-08T09:12:14.938Z,23.78
2022-08-08T09:14:44.929Z,23.83
2022-08-08T09:17:18.781Z,23.95
2022-08-08T09:21:56.297Z,23.98
2022-08-08T09:22:35.713Z,24.02
2022-08-08T09:25:05.516Z,24.07
2022-08-08T09:27:56.494Z,24.08
2022-08-08T09:30:26.701Z,24.12
2022-08-08T09:33:54.986Z,24.14
2022-08-08T09:35:49.379Z,24.21
2022-08-08T09:38:32.633Z,24.29
2022-08-08T09:41:06.395Z,24.42
2022-08-08T09:44:06.217Z,24.56
2022-08-08T09:46:34.701Z,24.59
2022-08-08T09:49:18.475Z,24.61
2022-08-08T09:52:06.318Z,24.65
2022-08-08T09:54:42.195Z,24.74
2022-08-08T09:57:17.111Z,24.89
2022-08-08T10:00:02.390Z,25.03
2022-08-08T10:02:45.808Z,25.11
2022-08-08T10:05:25.102Z,25.19
2022-08-08T10:07:52.224Z,25.22
2022-08-08T10:10:36.632Z,25.32
2022-08-08T10:13:30.003Z,25.39
2022-08-08T10:16:03.450Z,25.43
2022-08-08T10:18:36.325Z,25.56
2022-08-08T10:21:23.170Z,25.63
2022-08-08T10:24:02.793Z,25.74
2022-08-08T10:26:57.335Z,25.76
2022-08-08T10:29:56.864Z,25.96
2022-08-08T10:32:48.719Z,26.08
2022-08-08T10:35:20.563Z,26.32
2022-08-08T10:38:08.529Z,26.38
2022-08-08T10:40:38.349Z,26.46
2022-08-08T10:43:06.488Z,26.63
2022-08-08T10:45:56.571Z,26.78
2022-08-08T10:48:57.714Z,26.75
2022-08-08T10:51:31.626Z,26.75
2022-08-08T10:54:07.743Z,26.83
2022-08-08T10:56:36.804Z,26.93
2022-08-08T10:59:10.346Z,27.05
2022-08-08T11:01:49.452Z,27.15
2022-08-08T11:04:38.445Z,27.29
2022-08-08T11:07:05.453Z,27.38
2022-08-08T11:09:34.442Z,27.52
2022-08-08T11:12:13.533Z,27.53
2022-08-08T11:15:00.679Z,27.65
2022-08-08T11:17:59.876Z,27.75
2022-08-08T11:20:27.894Z,27.77
2022-08-08T11:23:00.756Z,27.83
2022-08-08T11:25:53.057Z,27.94
2022-08-08T11:28:26.069Z,28.12
2022-08-08T11:30:59.708Z,28.25
2022-08-08T11:33:51.780Z,28.33
2022-08-08T11:36:15.657Z,28.30
2022-08-08T11:38:54.194Z,28.30
2022-08-08T11:41:24.753Z,28.47
2022-08-08T11:43:54.011Z,28.62
2022-08-08T11:46:26.450Z,28.68
2022-08-08T11:48:55.375Z,28.68
2022-08-08T11:51:30.326Z,28.78
2022-08-08T11:54:09.908Z,28.97
2022-08-08T11:56:57.809Z,29.03
2022-08-08T12:00:01.827Z,29.21
2022-08-08T12:02:33.132Z,29.22
2022-08-08T12:05:12.513Z,29.37
2022-08-08T12:07:53.497Z,29.29
2022-08-08T12:10:26.057Z,29.27
2022-08-08T12:13:15.040Z,29.56
2022-08-08T12:15:51.430Z,29.62
2022-08-08T12:18:25.258Z,29.68
2022-08-08T12:20:58.638Z,29.77
2022-08-08T12:23:43.399Z,30.03
2022-08-08T12:26:27.942Z,30.08
2022-08-08T12:29:19.787Z,30.16
2022-08-08T12:31:59.987Z,30.31
2022-08-08T12:34:56.414Z,30.18
2022-08-08T12:37:40.747Z,30.20
2022-08-08T12:40:22.371Z,30.26
2022-08-08T12:42:50.300Z,30.46
2022-08-08T12:45:58.073Z,30.65
2022-08-08T12:48:36.461Z,30.77
2022-08-08T12:51:10.884Z,30.90
2022-08-08T12:53:59.158Z,30.94
2022-08-08T12:56:39.919Z,30.82
2022-08-08T12:59:44.510Z,30.50
2022-08-08T13:02:23.522Z,30.51
2022-08-08T13:04:58.036Z,30.69
2022-08-08T13:08:04.070Z,30.92
2022-08-08T13:10:33.632Z,30.98
2022-08-08T13:13:05.610Z,30.87
2022-08-08T13:15:32.848Z,30.88
2022-08-08T13:18:11.224Z,31.01
2022-08-08T13:20:48.900Z,31.02
2022-08-08T13:23:30.247Z,31.07
2022-08-08T13:26:04.249Z,31.15
2022-08-08T13:28:41.380Z,31.26
2022-08-08T13:31:12.426Z,31.40
2022-08-08T13:33:47.364Z,31.48
2022-08-08T13:36:17.166Z,31.49
2022-08-08T13:38:45.014Z,31.54
2022-08-08T13:41:16.517Z,31.56
2022-08-08T13:43:47.669Z,31.63
2022-08-08T13:46:26.361Z,31.63
2022-08-08T13:50:32.354Z,31.54
2022-08-08T13:51:59.644Z,31.58
2022-08-08T13:54:31.655Z,31.55
2022-08-08T13:57:11.325Z,31.53
2022-08-08T13:59:48.002Z,31.68
2022-08-08T14:02:21.356Z,31.82
2022-08-08T14:05:20.058Z,31.83
2022-08-08T14:07:52.366Z,31.83
2022-08-08T14:10:33.119Z,31.81
2022-08-08T14:13:20.750Z,31.84
2022-08-08T14:16:04.438Z,31.94
2022-08-08T14:18:35.510Z,31.98
2022-08-08T14:21:08.146Z,31.99
2022-08-08T14:24:04.639Z,31.85
2022-08-08T14:26:30.764Z,31.78
2022-08-08T14:29:00.174Z,31.72
2022-08-08T14:32:06.181Z,31.71
2022-08-08T14:34:19.451Z,31.76
2022-08-08T14:36:51.785Z,31.76
2022-08-08T14:39:24.931Z,31.82
2022-08-08T14:42:03.205Z,31.70
2022-08-08T14:44:33.661Z,31.66
2022-08-08T14:47:02.642Z,31.66
2022-08-08T14:50:06.809Z,31.44
2022-08-08T14:52:58.363Z,31.33
2022-08-08T14:55:41.476Z,31.39
2022-08-08T14:58:16.113Z,31.71
2022-08-08T15:00:47.886Z,31.98
2022-08-08T15:03:17.045Z,32.18
2022-08-08T15:05:53.207Z,32.23
2022-08-08T15:08:34.225Z,32.33
2022-08-08T15:11:11.166Z,32.39
2022-08-08T15:14:01.345Z,32.38
2022-08-08T15:16:29.211Z,32.32
2022-08-08T15:19:01.557Z,32.27
2022-08-08T15:21:30.295Z,32.33
2022-08-08T15:23:57.487Z,32.32
2022-08-08T15:26:25.419Z,32.40
2022-08-08T15:28:54.102Z,32.35
2022-08-08T15:31:26.050Z,32.40
2022-08-08T15:34:18.792Z,32.57
2022-08-08T15:36:56.923Z,32.72
2022-08-08T15:39:23.531Z,32.72
2022-08-08T15:41:52.588Z,32.81
2022-08-08T15:44:21.047Z,32.74
2022-08-08T15:46:50.944Z,32.81
2022-08-08T15:49:20.557Z,32.90
2022-08-08T15:51:50.018Z,32.81
2022-08-08T15:54:37.201Z,32.74
2022-08-08T15:57:07.604Z,32.83
2022-08-08T16:00:05.721Z,32.87
2022-08-08T16:02:31.490Z,32.99
2022-08-08T16:05:00.596Z,32.89
2022-08-08T16:07:39.142Z,32.77
2022-08-08T16:13:07.865Z,32.84
2022-08-08T16:13:27.567Z,32.64
2022-08-08T16:15:58.544Z,32.41
2022-08-08T16:18:33.078Z,32.41
2022-08-08T16:21:01.018Z,32.35
2022-08-08T16:23:32.108Z,32.35
2022-08-08T16:26:12.604Z,32.29
2022-08-08T16:28:44.426Z,32.15
2022-08-08T16:31:12.399Z,32.05
2022-08-08T16:33:40.046Z,32.06
2022-08-08T16:36:09.843Z,32.11
2022-08-08T16:38:47.355Z,32.17
2022-08-08T16:41:22.721Z,32.08
2022-08-08T16:43:50.850Z,31.90
2022-08-08T16:46:36.476Z,31.83
2022-08-08T16:49:08.078Z,31.74
2022-08-08T16:55:01.177Z,31.73
2022-08-08T16:55:20.745Z,31.74
2022-08-08T16:57:43.556Z,31.70
2022-08-08T17:00:01.245Z,31.59
2022-08-08T17:02:39.351Z,31.46
2022-08-08T17:05:08.332Z,31.26
2022-08-08T17:07:37.870Z,31.15
2022-08-08T17:10:11.512Z,31.10
2022-08-08T17:12:38.843Z,31.08
2022-08-08T17:15:20.614Z,30.92
2022-08-08T17:18:03.209Z,30.77
2022-08-08T17:20:40.066Z,30.65
2022-08-08T17:23:17.693Z,30.69
2022-08-08T17:25:54.973Z,30.70
2022-08-08T17:28:31.534Z,30.75
2022-08-08T17:31:15.097Z,30.81
2022-08-08T17:34:54.038Z,30.87
2022-08-08T17:37:00.251Z,30.77
2022-08-08T17:40:03.914Z,30.62
2022-08-08T17:42:17.908Z,30.67
2022-08-08T17:44:46.163Z,30.94
2022-08-08T17:47:16.330Z,31.40
2022-08-08T17:49:52.423Z,32.90
2022-08-08T17:52:23.114Z,34.63
2022-08-08T17:54:51.928Z,36.05
2022-08-08T17:57:22.859Z,36.56
2022-08-08T17:59:49.465Z,37.00
2022-08-08T18:02:28.743Z,37.04
2022-08-08T18:04:58.544Z,36.00
2022-08-08T18:08:01.728Z,34.32
2022-08-08T18:10:15.430Z,32.63
2022-08-08T18:12:42.734Z,31.52
2022-08-08T18:15:10.154Z,30.59
2022-08-08T18:18:27.238Z,29.93
2022-08-08T18:20:42.940Z,29.21
2022-08-08T18:23:14.700Z,28.64
2022-08-08T18:25:41.923Z,28.22
2022-08-08T18:28:13.319Z,27.93
2022-08-08T18:30:41.626Z,27.58
2022-08-08T18:33:36.255Z,27.29
2022-08-08T18:36:02.708Z,27.01
2022-08-08T18:38:34.281Z,26.81
2022-08-08T18:41:02.906Z,26.60
2022-08-08T18:43:38.147Z,26.40
2022-08-08T18:46:56.929Z,26.18
2022-08-08T18:48:57.126Z,26.05
2022-08-08T18:51:48.602Z,25.88
2022-08-08T18:54:22.076Z,25.75
2022-08-08T18:56:51.353Z,25.64
2022-08-08T18:59:18.045Z,25.54
2022-08-08T19:02:25.186Z,25.47
2022-08-08T19:04:31.857Z,25.38
2022-08-08T19:07:02.593Z,25.27
2022-08-08T19:09:49.085Z,25.15
2022-08-08T19:12:17.146Z,25.03
2022-08-08T19:14:44.111Z,24.95
2022-08-08T19:17:11.201Z,24.86
2022-08-08T19:19:44.273Z,24.76
2022-08-08T19:22:26.678Z,24.63
2022-08-08T19:26:00.045Z,24.57
2022-08-08T19:27:57.218Z,24.52
2022-08-08T19:30:27.526Z,24.46
2022-08-08T19:32:58.065Z,24.43
2022-08-08T19:35:45.064Z,24.38
2022-08-08T19:38:16.425Z,24.34
2022-08-08T19:40:43.208Z,24.30
2022-08-08T19:43:11.624Z,24.25
2022-08-08T19:45:58.976Z,24.16
2022-08-08T19:48:28.823Z,24.11
2022-08-08T19:50:59.398Z,24.05
2022-08-08T19:53:51.849Z,24.00
2022-08-08T19:56:16.513Z,23.96
2022-08-08T19:58:52.852Z,23.94
2022-08-08T20:01:31.530Z,23.91
2022-08-08T20:04:02.351Z,23.89
2022-08-08T20:06:30.022Z,23.87
2022-08-08T20:08:56.954Z,23.85
2022-08-08T20:11:24.451Z,23.80
2022-08-08T20:14:32.120Z,23.77
2022-08-08T20:16:40.842Z,23.71
2022-08-08T20:19:08.945Z,23.63
2022-08-08T20:21:37.827Z,23.58
2022-08-08T20:24:06.235Z,23.48
2022-08-08T20:26:38.096Z,23.40
2022-08-08T20:29:06.852Z,23.30
2022-08-08T20:32:08.226Z,23.13
2022-08-08T20:34:29.764Z,23.09
2022-08-08T20:37:03.297Z,22.98
2022-08-08T20:39:39.768Z,22.89
2022-08-08T20:42:28.557Z,22.77
2022-08-08T20:44:57.046Z,22.74
2022-08-08T20:47:24.034Z,22.68
2022-08-08T20:49:54.607Z,22.61
2022-08-08T20:52:25.782Z,22.50
2022-08-08T20:54:52.418Z,22.43
2022-08-08T20:57:20.906Z,22.36
2022-08-08T20:59:48.480Z,22.31
2022-08-08T21:02:25.787Z,22.26
2022-08-08T21:04:57.448Z,22.24
2022-08-08T21:07:31.208Z,22.20
2022-08-08T21:10:15.003Z,22.16
2022-08-08T21:12:45.932Z,22.15
2022-08-08T21:15:16.487Z,22.09
2022-08-08T21:18:00.203Z,22.09
2022-08-08T21:20:34.237Z,22.06
2022-08-08T21:23:04.397Z,22.04
2022-08-08T21:25:36.507Z,22.01
2022-08-08T21:28:09.646Z,21.89
2022-08-08T21:30:45.238Z,21.90
2022-08-08T21:33:16.560Z,21.84
2022-08-08T21:36:16.915Z,21.74
2022-08-08T21:38:30.033Z,21.63
2022-08-08T21:40:58.109Z,21.47
2022-08-08T21:43:32.912Z,21.36
2022-08-08T21:48:07.162Z,21.28
2022-08-08T21:48:53.433Z,21.22
2022-08-08T21:54:23.379Z,21.06
2022-08-08T21:54:34.185Z,21.08
2022-08-08T21:57:01.613Z,21.01
2022-08-08T22:00:01.566Z,20.87
2022-08-08T22:02:19.536Z,20.80
2022-08-08T22:04:50.019Z,20.71
2022-08-08T22:07:18.143Z,20.67
2022-08-08T22:09:45.701Z,20.60
2022-08-08T22:12:15.093Z,20.50
2022-08-08T22:14:44.620Z,20.44
2022-08-08T22:17:17.310Z,20.40
2022-08-08T22:20:13.006Z,20.34
2022-08-08T22:22:36.115Z,20.25
2022-08-08T22:25:19.902Z,20.23
2022-08-08T22:28:03.600Z,20.06
2022-08-08T22:30:33.758Z,19.95
2022-08-08T22:33:01.623Z,19.78
2022-08-08T22:36:03.605Z,19.74
2022-08-08T22:38:17.433Z,19.64
2022-08-08T22:40:44.876Z,19.59
2022-08-08T22:43:11.624Z,19.55
2022-08-08T22:45:38.985Z,19.51
2022-08-08T22:48:06.325Z,19.40
2022-08-08T22:50:33.499Z,19.30
2022-08-08T22:54:31.786Z,19.36
2022-08-08T22:55:59.751Z,19.37
2022-08-08T22:58:34.148Z,19.38
2022-08-08T23:02:01.013Z,19.38
2022-08-08T23:03:55.489Z,19.39
2022-08-08T23:06:24.104Z,19.36
2022-08-08T23:08:55.987Z,19.29
2022-08-08T23:12:29.067Z,19.21
2022-08-08T23:14:21.134Z,19.14
2022-08-08T23:16:54.462Z,19.06
2022-08-08T23:19:32.240Z,19.02
2022-08-08T23:22:04.387Z,18.95
2022-08-08T23:24:36.264Z,18.95
2022-08-08T23:27:04.372Z,18.94
2022-08-08T23:29:31.377Z,18.95
2022-08-08T23:31:58.435Z,18.94
2022-08-08T23:34:25.286Z,18.91
2022-08-08T23:36:57.983Z,18.88
2022-08-08T23:39:26.522Z,18.83
2022-08-08T23:42:00.818Z,18.80
2022-08-08T23:44:28.725Z,18.80
2022-08-08T23:49:01.628Z,18.77
2022-08-08T23:49:42.020Z,18.67
2022-08-08T23:52:11.973Z,18.60
2022-08-08T23:55:00.162Z,18.51
2022-08-08T23:57:39.068Z,18.44
